createdAt,value
2019-06-08T00:00:36.302Z,1.13
2019-06-08T00:03:09.732Z,1.30
2019-06-08T00:05:43.116Z,0.87
2019-06-08T00:08:16.862Z,1.53
2019-06-08T00:10:50.420Z,1.20
2019-06-08T00:13:23.824Z,1.37
2019-06-08T00:15:57.245Z,1.20
2019-06-08T00:18:30.670Z,1.33
2019-06-08T00:21:04.084Z,1.30
2019-06-08T00:23:37.519Z,1.30
2019-06-08T00:26:10.901Z,1.10
2019-06-08T00:28:44.324Z,1.00
2019-06-08T00:31:17.813Z,1.17
2019-06-08T00:33:51.207Z,1.17
2019-06-08T00:36:25.079Z,1.50
2019-06-08T00:38:58.660Z,1.30
2019-06-08T00:41:32.062Z,1.00
2019-06-08T00:44:05.912Z,1.20
2019-06-08T00:46:39.307Z,1.30
2019-06-08T00:49:12.733Z,1.40
2019-06-08T00:51:46.142Z,1.30
2019-06-08T00:54:19.551Z,1.37
2019-06-08T00:56:53.015Z,1.37
2019-06-08T00:59:26.449Z,1.33
2019-06-08T01:01:59.865Z,1.30
2019-06-08T01:04:33.296Z,1.00
2019-06-08T01:07:06.748Z,0.90
2019-06-08T01:09:40.164Z,0.90
2019-06-08T01:12:13.577Z,1.20
2019-06-08T01:14:47.066Z,1.10
2019-06-08T01:17:21.059Z,1.20
2019-06-08T01:19:54.557Z,1.00
2019-06-08T01:22:27.962Z,1.30
2019-06-08T01:25:01.401Z,1.37
2019-06-08T01:27:34.814Z,1.17
2019-06-08T01:30:09.453Z,1.17
2019-06-08T01:32:42.837Z,1.30
2019-06-08T01:35:16.355Z,1.30
2019-06-08T01:37:49.740Z,1.10
2019-06-08T01:40:23.322Z,1.07
2019-06-08T01:42:56.716Z,1.00
2019-06-08T01:45:30.251Z,1.40
2019-06-08T01:48:19.652Z,1.20
2019-06-08T01:50:40.793Z,1.00
2019-06-08T01:53:14.201Z,1.30
2019-06-08T01:55:47.596Z,1.17
2019-06-08T01:58:20.988Z,1.30
2019-06-08T02:00:54.493Z,1.43
2019-06-08T02:03:28.180Z,1.00
2019-06-08T02:06:01.706Z,1.10
2019-06-08T02:08:35.167Z,1.00
2019-06-08T02:11:08.573Z,1.00
2019-06-08T02:13:41.996Z,1.00
2019-06-08T02:16:15.408Z,1.30
2019-06-08T02:18:51.093Z,1.00
2019-06-08T02:21:23.949Z,1.30
2019-06-08T02:23:57.334Z,1.20
2019-06-08T02:26:32.052Z,0.90
2019-06-08T02:29:06.245Z,1.00
2019-06-08T02:31:39.671Z,0.87
2019-06-08T02:34:13.070Z,1.23
2019-06-08T02:36:46.501Z,0.90
2019-06-08T02:39:19.906Z,1.07
2019-06-08T02:41:53.406Z,0.93
2019-06-08T02:44:28.290Z,1.00
2019-06-08T02:47:02.038Z,1.00
2019-06-08T02:49:35.928Z,1.10
2019-06-08T02:52:11.423Z,1.00
2019-06-08T02:54:44.892Z,1.07
2019-06-08T02:57:19.810Z,1.20
2019-06-08T02:59:55.629Z,0.80
2019-06-08T03:02:29.655Z,1.07
2019-06-08T03:05:03.787Z,1.50
2019-06-08T03:07:39.014Z,1.43
2019-06-08T03:10:12.846Z,0.80
2019-06-08T03:12:48.134Z,0.97
2019-06-08T03:15:24.577Z,0.77
2019-06-08T03:17:57.984Z,0.90
2019-06-08T03:20:31.665Z,0.90
2019-06-08T03:23:05.258Z,1.00
2019-06-08T03:25:47.254Z,1.13
2019-06-08T03:28:13.890Z,1.23
2019-06-08T03:30:53.845Z,1.23
2019-06-08T03:33:22.528Z,1.27
2019-06-08T03:35:58.140Z,1.17
2019-06-08T03:38:31.072Z,1.20
2019-06-08T03:41:04.570Z,1.00
2019-06-08T03:43:40.076Z,1.13
2019-06-08T03:46:13.096Z,1.27
2019-06-08T03:48:46.699Z,1.20
2019-06-08T03:51:20.073Z,1.10
2019-06-08T03:53:53.491Z,1.30
2019-06-08T03:56:26.893Z,1.30
2019-06-08T03:59:00.300Z,1.60
2019-06-08T04:01:33.687Z,1.20
2019-06-08T04:04:07.093Z,1.40
2019-06-08T04:06:41.486Z,1.17
2019-06-08T04:09:14.978Z,1.13
2019-06-08T04:11:50.197Z,1.23
2019-06-08T04:14:23.683Z,1.20
2019-06-08T04:16:57.073Z,1.40
2019-06-08T04:19:30.509Z,1.27
2019-06-08T04:22:03.969Z,1.20
2019-06-08T04:24:38.044Z,1.27
2019-06-08T04:27:11.480Z,1.33
2019-06-08T04:29:46.133Z,1.40
2019-06-08T04:32:19.907Z,1.40
2019-06-08T04:34:53.369Z,1.40
2019-06-08T04:37:26.787Z,1.23
2019-06-08T04:40:00.209Z,1.57
2019-06-08T04:42:32.576Z,1.43
2019-06-08T04:45:08.264Z,1.47
2019-06-08T04:47:43.570Z,1.43
2019-06-08T04:50:23.135Z,1.37
2019-06-08T04:52:51.974Z,1.27
2019-06-08T04:55:25.402Z,1.20
2019-06-08T04:57:58.779Z,1.30
2019-06-08T05:00:32.214Z,1.07
2019-06-08T05:03:05.625Z,1.27
2019-06-08T05:05:39.381Z,1.23
2019-06-08T05:08:14.109Z,1.47
2019-06-08T05:10:47.615Z,1.23
2019-06-08T05:13:21.488Z,1.10
2019-06-08T05:15:54.924Z,1.20
2019-06-08T05:18:28.324Z,1.00
2019-06-08T05:21:01.759Z,1.00
2019-06-08T05:23:35.248Z,1.10
2019-06-08T05:26:08.694Z,1.40
2019-06-08T05:28:43.172Z,1.33
2019-06-08T05:31:16.634Z,1.43
2019-06-08T05:33:50.089Z,1.70
2019-06-08T05:36:23.577Z,1.13
2019-06-08T05:38:56.964Z,1.40
2019-06-08T05:41:30.407Z,1.00
2019-06-08T05:44:03.864Z,1.30
2019-06-08T05:46:37.303Z,1.40
2019-06-08T05:49:10.717Z,1.50
2019-06-08T05:51:44.120Z,1.83
2019-06-08T05:54:17.524Z,1.50
2019-06-08T05:56:50.946Z,1.60
2019-06-08T05:59:24.409Z,1.80
2019-06-08T06:01:57.881Z,1.30
2019-06-08T06:04:31.269Z,1.50
2019-06-08T06:07:04.869Z,1.50
2019-06-08T06:09:38.326Z,1.47
2019-06-08T06:12:11.743Z,1.33
2019-06-08T06:14:45.130Z,1.30
2019-06-08T06:17:18.567Z,1.17
2019-06-08T06:19:52.004Z,1.70
2019-06-08T06:22:25.459Z,1.50
2019-06-08T06:24:58.887Z,1.30
2019-06-08T06:27:32.279Z,1.37
2019-06-08T06:30:07.697Z,1.55
2019-06-08T06:32:41.789Z,1.70
2019-06-08T06:35:16.816Z,1.60
2019-06-08T06:37:50.297Z,1.80
2019-06-08T06:40:23.741Z,1.40
2019-06-08T06:42:57.169Z,1.30
2019-06-08T06:45:30.661Z,1.77
2019-06-08T06:48:04.159Z,1.60
2019-06-08T06:50:37.665Z,1.50
2019-06-08T06:53:11.102Z,1.50
2019-06-08T06:55:44.835Z,1.20
2019-06-08T06:58:18.284Z,1.33
2019-06-08T07:00:51.764Z,1.23
2019-06-08T07:03:25.184Z,1.50
2019-06-08T07:05:58.617Z,1.30
2019-06-08T07:08:32.048Z,1.80
2019-06-08T07:11:05.612Z,1.30
2019-06-08T07:13:39.042Z,1.23
2019-06-08T07:16:18.469Z,1.50
2019-06-08T07:18:48.184Z,1.27
2019-06-08T07:21:21.852Z,1.40
2019-06-08T07:23:56.191Z,1.57
2019-06-08T07:26:29.853Z,2.00
2019-06-08T07:29:03.360Z,1.33
2019-06-08T07:31:36.754Z,1.40
2019-06-08T07:34:10.166Z,1.83
2019-06-08T07:36:43.591Z,1.10
2019-06-08T07:39:16.972Z,1.53
2019-06-08T07:41:51.711Z,1.43
2019-06-08T07:44:25.281Z,1.57
2019-06-08T07:47:00.150Z,1.33
2019-06-08T07:49:33.580Z,1.03
2019-06-08T07:52:10.644Z,1.40
2019-06-08T07:54:42.132Z,1.40
2019-06-08T07:57:15.545Z,1.20
2019-06-08T07:59:50.238Z,1.30
2019-06-08T08:02:23.823Z,1.10
2019-06-08T08:04:57.208Z,1.30
2019-06-08T08:07:32.226Z,1.60
2019-06-08T08:10:08.299Z,1.20
2019-06-08T08:12:41.772Z,1.30
2019-06-08T08:15:15.726Z,1.50
2019-06-08T08:17:49.177Z,1.37
2019-06-08T08:20:22.736Z,1.30
2019-06-08T08:23:01.991Z,1.20
2019-06-08T08:25:31.279Z,1.47
2019-06-08T08:28:04.876Z,1.50
2019-06-08T08:30:38.337Z,1.60
2019-06-08T08:33:11.856Z,1.50
2019-06-08T08:35:45.344Z,1.63
2019-06-08T08:38:18.849Z,1.67
2019-06-08T08:40:53.438Z,1.50
2019-06-08T08:43:28.039Z,1.57
2019-06-08T08:46:01.967Z,1.30
2019-06-08T08:48:37.582Z,1.50
2019-06-08T08:51:10.684Z,1.37
2019-06-08T08:53:44.091Z,1.50
2019-06-08T08:56:18.154Z,1.70
2019-06-08T08:58:52.482Z,1.70
2019-06-08T09:01:28.551Z,1.23
2019-06-08T09:04:04.809Z,1.20
2019-06-08T09:06:38.127Z,1.23
2019-06-08T09:09:11.389Z,1.40
2019-06-08T09:11:44.814Z,1.37
2019-06-08T09:14:18.578Z,2.10
2019-06-08T09:16:53.628Z,1.60
2019-06-08T09:19:28.113Z,1.57
2019-06-08T09:22:03.867Z,1.17
2019-06-08T09:24:39.053Z,1.50
2019-06-08T09:27:11.966Z,1.70
2019-06-08T09:29:48.167Z,1.37
2019-06-08T09:32:21.656Z,1.40
2019-06-08T09:34:57.175Z,1.20
2019-06-08T09:37:32.240Z,1.40
2019-06-08T09:40:06.592Z,1.50
2019-06-08T09:42:39.980Z,1.57
2019-06-08T09:45:14.048Z,1.40
2019-06-08T09:47:47.931Z,1.03
2019-06-08T09:50:22.073Z,1.00
2019-06-08T09:53:13.026Z,1.23
2019-06-08T09:55:30.659Z,1.00
2019-06-08T09:58:08.152Z,1.23
2019-06-08T10:00:39.349Z,1.30
2019-06-08T10:03:12.737Z,1.10
2019-06-08T10:05:48.234Z,1.00
2019-06-08T10:08:21.386Z,1.03
2019-06-08T10:10:56.642Z,1.20
2019-06-08T10:13:30.555Z,1.00
2019-06-08T10:16:06.893Z,1.00
2019-06-08T10:18:39.475Z,0.90
2019-06-08T10:21:12.855Z,1.20
2019-06-08T10:23:48.374Z,1.37
2019-06-08T10:26:21.467Z,1.27
2019-06-08T10:28:55.329Z,1.20
2019-06-08T10:31:38.882Z,1.30
2019-06-08T10:34:06.141Z,1.20
2019-06-08T10:36:39.076Z,1.30
2019-06-08T10:39:12.563Z,1.20
2019-06-08T10:41:51.341Z,1.27
2019-06-08T10:44:21.101Z,0.93
2019-06-08T10:46:54.629Z,1.20
2019-06-08T10:49:28.772Z,1.23
2019-06-08T10:52:04.401Z,1.20
2019-06-08T10:54:37.910Z,1.00
2019-06-08T10:57:11.501Z,1.30
2019-06-08T10:59:44.976Z,0.90
2019-06-08T11:02:18.892Z,1.10
2019-06-08T11:04:52.476Z,0.93
2019-06-08T11:07:27.960Z,0.90
2019-06-08T11:10:02.131Z,1.30
2019-06-08T11:12:37.700Z,1.20
2019-06-08T11:15:11.936Z,1.20
2019-06-08T11:17:45.408Z,1.30
2019-06-08T11:20:18.929Z,1.40
2019-06-08T11:22:52.338Z,1.20
2019-06-08T11:25:27.869Z,1.10
2019-06-08T11:28:01.805Z,0.90
2019-06-08T11:30:35.294Z,0.90
2019-06-08T11:33:11.228Z,1.47
2019-06-08T11:35:43.881Z,1.00
2019-06-08T11:38:17.556Z,1.23
2019-06-08T11:40:52.457Z,0.80
2019-06-08T11:43:28.559Z,1.00
2019-06-08T11:46:02.483Z,1.30
2019-06-08T11:48:40.863Z,1.17
2019-06-08T11:51:13.012Z,0.98
2019-06-08T11:53:49.939Z,0.90
2019-06-08T11:56:22.240Z,1.00
2019-06-08T11:58:57.942Z,1.20
2019-06-08T12:01:31.530Z,1.00
2019-06-08T12:04:05.828Z,1.30
2019-06-08T12:06:39.288Z,0.70
2019-06-08T12:09:14.075Z,1.00
2019-06-08T12:11:48.098Z,0.90
2019-06-08T12:14:21.583Z,0.60
2019-06-08T12:16:54.993Z,1.00
2019-06-08T12:19:31.506Z,1.20
2019-06-08T12:22:03.909Z,0.97
2019-06-08T12:24:42.045Z,0.90
2019-06-08T12:27:24.793Z,1.20
2019-06-08T12:29:50.074Z,0.97
2019-06-08T12:32:22.714Z,0.90
2019-06-08T12:34:59.789Z,0.90
2019-06-08T12:37:31.326Z,1.00
2019-06-08T12:40:09.361Z,1.20
2019-06-08T12:42:41.354Z,1.00
2019-06-08T12:45:15.522Z,0.80
2019-06-08T12:47:48.963Z,1.30
2019-06-08T12:50:22.533Z,0.80
2019-06-08T12:52:58.277Z,1.10
2019-06-08T12:55:31.025Z,1.00
2019-06-08T12:58:04.873Z,1.00
2019-06-08T13:00:38.293Z,0.90
2019-06-08T13:03:12.898Z,0.90
2019-06-08T13:05:46.371Z,1.00
2019-06-08T13:08:21.754Z,1.40
2019-06-08T13:10:55.040Z,0.90
2019-06-08T13:13:28.470Z,1.00
2019-06-08T13:16:01.876Z,1.07
2019-06-08T13:18:35.270Z,1.20
2019-06-08T13:21:23.027Z,1.00
2019-06-08T13:23:43.816Z,1.00
2019-06-08T13:26:21.544Z,1.30
2019-06-08T13:28:52.409Z,1.00
2019-06-08T13:31:28.495Z,1.07
2019-06-08T13:34:00.954Z,1.13
2019-06-08T13:36:34.376Z,1.03
2019-06-08T13:39:10.078Z,0.90
2019-06-08T13:41:43.062Z,1.07
2019-06-08T13:44:17.729Z,1.20
2019-06-08T13:46:51.255Z,1.00
2019-06-08T13:49:29.732Z,1.07
2019-06-08T13:51:59.836Z,0.97
2019-06-08T13:54:33.225Z,1.23
2019-06-08T13:57:08.550Z,1.10
2019-06-08T13:59:41.842Z,1.10
2019-06-08T14:02:17.836Z,0.80
2019-06-08T14:04:50.425Z,0.90
2019-06-08T14:07:28.678Z,0.80
2019-06-08T14:10:01.664Z,1.20
2019-06-08T14:12:35.064Z,0.90
2019-06-08T14:15:08.766Z,1.43
2019-06-08T14:17:42.162Z,1.03
2019-06-08T14:20:19.877Z,1.13
2019-06-08T14:22:53.814Z,0.97
2019-06-08T14:25:28.924Z,1.20
2019-06-08T14:28:02.504Z,1.10
2019-06-08T14:30:37.800Z,1.10
2019-06-08T14:33:11.028Z,1.10
2019-06-08T14:35:44.467Z,0.90
2019-06-08T14:38:20.283Z,0.97
2019-06-08T14:40:53.081Z,1.00
2019-06-08T14:43:29.460Z,1.30
2019-06-08T14:46:19.515Z,1.80
2019-06-08T14:48:53.239Z,1.30
2019-06-08T14:51:30.151Z,1.30
2019-06-08T14:54:03.721Z,1.40
2019-06-08T14:56:37.559Z,1.10
2019-06-08T14:59:11.140Z,1.40
2019-06-08T15:01:44.655Z,0.90
2019-06-08T15:04:22.343Z,1.10
2019-06-08T15:06:53.267Z,1.27
2019-06-08T15:09:27.648Z,1.20
2019-06-08T15:12:01.931Z,1.10
2019-06-08T15:14:38.130Z,0.83
2019-06-08T15:17:10.477Z,1.07
2019-06-08T15:19:43.960Z,1.07
2019-06-08T15:22:18.789Z,0.90
2019-06-08T15:24:52.731Z,1.00
2019-06-08T15:27:28.036Z,1.20
2019-06-08T15:30:01.297Z,0.90
2019-06-08T15:32:35.685Z,0.97
2019-06-08T15:35:10.159Z,1.00
2019-06-08T15:37:43.601Z,1.13
2019-06-08T15:40:17.678Z,1.00
2019-06-08T15:42:51.384Z,1.30
2019-06-08T15:45:24.806Z,1.13
2019-06-08T15:47:58.796Z,1.07
2019-06-08T15:50:32.719Z,4.33
2019-06-08T15:53:08.363Z,1.10
2019-06-08T15:55:41.315Z,1.20
2019-06-08T15:58:17.823Z,1.10
2019-06-08T16:00:50.418Z,0.95
2019-06-08T16:03:25.218Z,1.20
2019-06-08T16:05:58.698Z,0.90
2019-06-08T16:08:32.392Z,1.22
2019-06-08T16:11:05.837Z,1.00
2019-06-08T16:13:39.254Z,1.00
2019-06-08T16:16:12.673Z,1.90
2019-06-08T16:18:46.121Z,0.90
2019-06-08T16:21:19.553Z,3.58
2019-06-08T16:23:52.978Z,3.45
2019-06-08T16:26:27.738Z,2.95
2019-06-08T16:29:01.457Z,1.70
2019-06-08T16:31:35.402Z,1.40
2019-06-08T16:34:08.859Z,0.90
2019-06-08T16:36:42.264Z,0.98
2019-06-08T16:39:15.697Z,0.88
2019-06-08T16:41:49.122Z,2.22
2019-06-08T16:44:22.567Z,1.05
2019-06-08T16:46:55.955Z,1.20
2019-06-08T16:49:29.422Z,0.93
2019-06-08T16:52:02.924Z,1.00
2019-06-08T16:54:37.269Z,0.90
2019-06-08T16:57:11.300Z,1.00
2019-06-08T16:59:44.906Z,0.90
2019-06-08T17:02:18.309Z,0.78
2019-06-08T17:04:51.758Z,1.02
2019-06-08T17:07:25.146Z,0.98
2019-06-08T17:09:58.572Z,0.78
2019-06-08T17:12:32.828Z,1.37
2019-06-08T17:15:06.781Z,1.00
2019-06-08T17:17:40.589Z,1.00
2019-06-08T17:20:14.395Z,0.93
2019-06-08T17:22:47.807Z,1.20
2019-06-08T17:25:21.305Z,1.07
2019-06-08T17:27:54.735Z,0.78
2019-06-08T17:30:28.158Z,1.10
2019-06-08T17:33:01.591Z,1.00
2019-06-08T17:35:35.607Z,0.98
2019-06-08T17:38:09.336Z,1.10
2019-06-08T17:40:42.767Z,1.00
2019-06-08T17:43:16.196Z,1.20
2019-06-08T17:45:49.626Z,1.03
2019-06-08T17:48:23.099Z,1.20
2019-06-08T17:50:56.534Z,1.10
2019-06-08T17:53:29.926Z,0.90
2019-06-08T17:56:03.373Z,1.20
2019-06-08T17:58:37.274Z,1.10
2019-06-08T18:01:10.772Z,1.23
2019-06-08T18:03:44.696Z,1.33
2019-06-08T18:06:18.192Z,0.90
2019-06-08T18:08:51.630Z,1.03
2019-06-08T18:11:25.033Z,1.10
2019-06-08T18:13:58.933Z,1.20
2019-06-08T18:16:32.347Z,1.20
2019-06-08T18:19:07.945Z,1.00
2019-06-08T18:21:42.918Z,1.30
2019-06-08T18:24:17.555Z,1.10
2019-06-08T18:26:53.376Z,0.83
2019-06-08T18:29:27.652Z,1.20
2019-06-08T18:32:01.289Z,1.50
2019-06-08T18:34:37.275Z,1.13
2019-06-08T18:37:10.245Z,1.20
2019-06-08T18:39:44.838Z,1.07
2019-06-08T18:42:20.265Z,1.00
2019-06-08T18:44:53.679Z,1.17
2019-06-08T18:47:27.386Z,1.00
2019-06-08T18:50:00.885Z,1.40
2019-06-08T18:52:36.019Z,1.27
2019-06-08T18:55:09.789Z,1.00
2019-06-08T18:57:44.125Z,0.80
2019-06-08T19:00:18.820Z,1.17
2019-06-08T19:02:54.468Z,1.37
2019-06-08T19:05:27.927Z,1.00
2019-06-08T19:08:01.522Z,1.13
2019-06-08T19:10:37.827Z,1.27
2019-06-08T19:13:11.498Z,1.50
2019-06-08T19:15:49.003Z,1.37
2019-06-08T19:18:20.150Z,1.20
2019-06-08T19:20:53.837Z,1.40
2019-06-08T19:23:28.012Z,1.43
2019-06-08T19:26:01.569Z,1.10
2019-06-08T19:28:36.516Z,1.20
2019-06-08T19:31:10.518Z,1.30
2019-06-08T19:33:44.010Z,1.13
2019-06-08T19:36:17.412Z,1.03
2019-06-08T19:38:54.537Z,1.40
2019-06-08T19:41:28.103Z,1.30
2019-06-08T19:44:01.164Z,1.50
2019-06-08T19:46:34.577Z,2.10
2019-06-08T19:49:08.056Z,3.20
2019-06-08T19:51:41.806Z,3.57
2019-06-08T19:54:18.331Z,4.53
2019-06-08T19:56:54.269Z,4.07
2019-06-08T19:59:27.446Z,5.30
2019-06-08T20:02:01.015Z,4.03
2019-06-08T20:04:34.447Z,4.17
2019-06-08T20:07:08.673Z,3.17
2019-06-08T20:09:43.195Z,3.00
2019-06-08T20:12:18.613Z,3.50
2019-06-08T20:14:52.219Z,2.90
2019-06-08T20:17:28.406Z,2.17
2019-06-08T20:20:00.911Z,1.77
2019-06-08T20:22:37.477Z,2.13
2019-06-08T20:25:11.167Z,1.70
2019-06-08T20:27:45.350Z,1.90
2019-06-08T20:30:19.678Z,1.63
2019-06-08T20:32:54.521Z,1.70
2019-06-08T20:35:28.198Z,1.60
2019-06-08T20:38:01.713Z,1.93
2019-06-08T20:40:35.140Z,1.80
2019-06-08T20:43:08.657Z,1.60
2019-06-08T20:45:42.135Z,1.73
2019-06-08T20:48:17.706Z,1.43
2019-06-08T20:50:52.216Z,1.50
2019-06-08T20:53:28.340Z,2.07
2019-06-08T20:56:01.240Z,1.80
2019-06-08T20:58:37.016Z,2.00
2019-06-08T21:01:09.785Z,1.83
2019-06-08T21:03:43.648Z,1.87
2019-06-08T21:06:17.247Z,1.70
2019-06-08T21:08:51.932Z,2.13
2019-06-08T21:11:27.136Z,2.20
2019-06-08T21:14:00.636Z,7.53
2019-06-08T21:16:34.069Z,5.70
2019-06-08T21:19:07.499Z,3.63
2019-06-08T21:21:40.913Z,3.67
2019-06-08T21:24:14.339Z,3.17
2019-06-08T21:26:52.269Z,2.93
2019-06-08T21:29:22.901Z,2.90
2019-06-08T21:32:00.363Z,2.40
2019-06-08T21:34:31.471Z,2.60
2019-06-08T21:37:05.039Z,2.67
2019-06-08T21:39:39.124Z,2.27
2019-06-08T21:42:12.647Z,2.30
2019-06-08T21:44:48.856Z,2.57
2019-06-08T21:47:21.272Z,2.40
2019-06-08T21:49:57.487Z,2.03
2019-06-08T21:52:30.466Z,2.40
2019-06-08T21:55:07.075Z,2.90
2019-06-08T21:57:40.158Z,2.70
2019-06-08T22:00:38.142Z,2.63
2019-06-08T22:02:49.818Z,2.67
2019-06-08T22:05:23.315Z,2.50
2019-06-08T22:07:58.788Z,2.30
2019-06-08T22:10:31.967Z,2.60
2019-06-08T22:13:08.059Z,2.10
2019-06-08T22:15:40.736Z,2.10
2019-06-08T22:18:14.211Z,2.43
2019-06-08T22:20:47.921Z,2.77
2019-06-08T22:23:21.509Z,3.17
2019-06-08T22:25:56.003Z,4.27
2019-06-08T22:28:30.147Z,3.50
2019-06-08T22:31:03.881Z,4.20
2019-06-08T22:33:37.994Z,4.20
2019-06-08T22:36:12.704Z,3.97
2019-06-08T22:38:47.734Z,4.43
2019-06-08T22:41:21.223Z,4.47
2019-06-08T22:43:55.697Z,3.60
2019-06-08T22:46:29.838Z,3.53
2019-06-08T22:49:04.030Z,2.87
2019-06-08T22:51:38.266Z,2.90
2019-06-08T22:54:12.092Z,3.17
2019-06-08T22:56:47.658Z,3.17
2019-06-08T22:59:20.690Z,3.30
2019-06-08T23:01:54.864Z,3.20
2019-06-08T23:04:29.247Z,3.47
2019-06-08T23:07:05.804Z,3.37
2019-06-08T23:09:37.818Z,3.20
2019-06-08T23:12:11.245Z,3.10
2019-06-08T23:14:47.036Z,2.70
2019-06-08T23:17:19.906Z,2.50
2019-06-08T23:19:53.404Z,3.03
2019-06-08T23:22:27.338Z,2.70
2019-06-08T23:25:01.613Z,2.73
2019-06-08T23:27:38.008Z,2.70
2019-06-08T23:30:11.321Z,2.80
2019-06-08T23:32:44.827Z,3.00
2019-06-08T23:35:18.375Z,2.37
2019-06-08T23:37:51.755Z,3.00
2019-06-08T23:40:27.222Z,3.23
2019-06-08T23:43:01.603Z,3.00
2019-06-08T23:45:37.806Z,3.20
2019-06-08T23:48:10.673Z,2.80
2019-06-08T23:50:44.053Z,2.97
2019-06-08T23:53:18.265Z,2.80
2019-06-08T23:55:51.785Z,2.70
2019-06-08T23:58:27.710Z,2.97
